Flight Track Log - Related Links

Times and Time Zones

All times are in EDT time to prevent confusion due to time zone crossing. See the EJA941 flight status page for this flight to view local times or setup timezone preferences in your user account.

Time Position Orientation Groundspeed Altitude Reporting Facility
EDT Latitude Longitude Course Direction KTS MPH feet Rate Location/Type
Mon 05:47:11 PM 44.9350 -93.2594 109° East 219 252 4,900  Level Minneapolis Center
Mon 05:48:13 PM 45.0053 -93.2486 North 257 296 8,900 4,597 Climbing Minneapolis Center
Mon 05:49:15 PM 44.9903 -93.1225 100° East 305 351 14,400 3,726 Climbing Minneapolis Center
Mon 05:50:17 PM 44.9347 -93.0044 124° Southeast 369 425 16,600 2,098 Climbing Minneapolis Center
Mon 05:51:18 PM 44.8742 -92.8781 124° Southeast 385 443 18,700 2,098 Climbing Minneapolis Center
Mon 05:52:00 PM 44.7279 -92.3854 109° East  Level Estimated
Mon 05:52:20 PM 44.8133 -92.7500 124° Southeast 390 449 20,900  Level Minneapolis Center
Mon 05:53:22 PM 44.7506 -92.6175 124° Southeast 401 461 22,800 1,694 Climbing Minneapolis Center
Mon 05:54:24 PM 44.6853 -92.4806 124° Southeast 418 481 24,400 1,512 Climbing Minneapolis Center
Mon 05:55:25 PM 44.6164 -92.3361 124° Southeast 438 504 25,900 1,220 Climbing Minneapolis Center
Mon 05:56:27 PM 44.5419 -92.1839 124° Southeast 462 532 26,900 532 Climbing Minneapolis Center
Mon 05:57:29 PM 44.4417 -91.9906 126° Southeast 503 579 27,000 49 Climbing Minneapolis Center
Mon 05:58:30 PM 44.3542 -91.8153 125° Southeast 538 619 27,000  Level Minneapolis Center
Mon 05:59:32 PM 44.2811 -91.6214 118° Southeast 557 641 27,000  Level Minneapolis Center
Mon 06:00:34 PM 44.2097 -91.4294 117° Southeast 560 644 27,000  Level Minneapolis Center
Mon 06:01:36 PM 44.1308 -91.2275 119° Southeast 563 648 27,000  Level Minneapolis Center
Mon 06:02:37 PM 44.0575 -91.0358 118° Southeast 565 650 27,000  Level Minneapolis Center
Mon 06:03:39 PM 43.9825 -90.8453 119° Southeast 564 649 27,000  Level Minneapolis Center
Mon 06:04:41 PM 43.9083 -90.6556 118° Southeast 564 649 27,000  Level Minneapolis Center
Mon 06:05:06 PM 43.8786 -90.5794 118° Southeast 565 650 27,000  Level Chicago Center
Mon 06:06:08 PM 43.7986 -90.3447 115° Southeast 569 655 27,000 -436 Level Chicago Center
Mon 06:06:56 PM 43.7886 -90.1953 95° East 555 639 26,200 -1,200 Descending Minneapolis Center
Mon 06:07:58 PM 43.7872 -89.9817 90° East 554 638 24,800 -1,452 Descending Minneapolis Center
Mon 06:09:00 PM 43.7789 -89.7372 93° East 547 629 23,200 -1,355 Descending Minneapolis Center
Mon 06:10:02 PM 43.7800 -89.5319 89° East 536 617 22,000 -1,756 Descending Minneapolis Center
Mon 06:11:03 PM 43.7806 -89.3339 90° East 519 597 19,600 -2,211 Descending Minneapolis Center
Mon 06:11:18 PM 43.7803 -89.3031 91° East 515 593 19,200 -1,558 Descending Chicago Center
Mon 06:12:20 PM 43.7808 -89.1133 90° East 496 571 17,600 -1,403 Descending Chicago Center
Mon 06:13:22 PM 43.7794 -88.9033 90° East 465 535 16,300 -1,645 Descending Chicago Center
Mon 06:14:24 PM 43.7789 -88.7369 90° East 434 499 14,200 -2,064 Descending Chicago Center
Mon 06:15:27 PM 43.7728 -88.5750 93° East 416 479 12,000 -2,064 Descending Chicago Center
Mon 06:16:29 PM 43.7533 -88.4325 101° East 378 435 9,900 -1,887 Descending Chicago Center
Mon 06:17:31 PM 43.7350 -88.3078 101° East 332 382 8,100 -1,680 Descending Chicago Center
Mon 06:18:34 PM 43.7183 -88.1903 101° East 313 360 6,400 -1,113 Descending Chicago Center
Mon 06:19:35 PM 43.7000 -88.0628 101° East 310 357 5,800 -590 Descending Chicago Center

Login

Don't have an account? Register now (free) for customized features, flight alerts, and more!